This is the latest recevied weather packets stored in our database for station/object DD5ASA. If no packets are shown the sender has not sent any weather packets the latest 10 day(s).
| Time | Temp. | Humidity | Pressure | Rain* | Wind** | Luminosity | Snow |
|---|---|---|---|---|---|---|---|
| 1777617628 | 8.89° C | 51% | 1030.6 hPa | 0 mm | - | - | - |
| 1777611957 | 3.89° C | 53% | 1030.6 hPa | 0 mm | - | - | - |
| 1777610450 | 3.33° C | 52% | 1030.6 hPa | 0 mm | - | - | - |
| 1777609216 | 3.33° C | 52% | 1030.6 hPa | 0 mm | - | - | - |
| 1777608080 | 3.33° C | 51% | 1030.6 hPa | 0 mm | - | - | - |
| 1777605617 | 3.89° C | 51% | 1030.6 hPa | 0 mm | - | - | - |
| 1777602629 | 3.89° C | 49% | 1030.6 hPa | 0 mm | - | - | - |
| 1777598743 | 5° C | 48% | 1030.6 hPa | 0 mm | - | - | - |
| 1777595134 | 5.56° C | 46% | 1030.6 hPa | 0 mm | - | - | - |
| 1777584644 | 8.33° C | 40% | 1030.6 hPa | 0 mm | - | - | - |
| 1777584029 | 8.33° C | 40% | 1030.6 hPa | 0 mm | - | - | - |
| 1777582250 | 8.89° C | 39% | 1030.6 hPa | 0 mm | - | - | - |
| 1777580135 | 9.44° C | 38% | 1030.6 hPa | 0 mm | - | - | - |
| 1777576526 | 11.11° C | 36% | 1030.6 hPa | 0 mm | - | - | - |
| 1777572630 | 13.33° C | 27% | 1030.6 hPa | 0 mm | - | - | - |
| 1777563918 | 17.22° C | 17% | 1030.6 hPa | 0 mm | - | - | - |
| 1777562721 | 17.78° C | 13% | 1030.6 hPa | 0 mm | - | - | - |
| 1777560017 | 17.78° C | 13% | 1030.6 hPa | 0 mm | - | - | - |
| 1777558533 | 18.89° C | 10% | 1030.6 hPa | 0 mm | - | - | - |
| 1777554365 | 16.67° C | 11% | 1031.6 hPa | 0 mm | - | - | - |
| 1777551960 | 17.22° C | 8% | 1031.6 hPa | 0 mm | - | - | - |
| 1777549251 | 18.33° C | 4% | 1031.6 hPa | 0 mm | - | - | - |
| 1777546856 | 17.78° C | 4% | 1031.6 hPa | 0 mm | - | - | - |
| 1777540559 | 17.22° C | 8% | 1032.7 hPa | 0 mm | - | - | - |
| 1777539346 | 15.56° C | 7% | 1032.7 hPa | 0 mm | - | - | - |
* Rain latest hour (hover to see other rain measurements)
** Current wind speed in m/s (hover to see current wind gust speed)